Time;durP1;ratioP1;P1;durP2;ratioP2;P2;SDS_P1;SDS_P2;PMS_P1;PMS_P2;Temp;Humidity;BMP_temperature;BMP_pressure;BME280_temperature;BME280_humidity;BME280_pressure;Samples;Min_cycle;Max_cycle;Signal;HPM_P1;HPM_P2
2022/12/25 00:02:01;;;;;;;5.38;1.30;;;;;;;19.68;42.24;101342.69;16121651;19;129954;-60
2022/12/25 00:07:22;;;;;;;5.95;1.60;;;;;;;19.66;42.08;101338.44;16121295;19;130873;-60
2022/12/25 00:12:44;;;;;;;3.05;1.30;;;;;;;19.63;42.06;101348.13;16122177;19;129559;-60
2022/12/25 00:18:06;;;;;;;2.75;1.23;;;;;;;19.61;41.75;101336.41;16120246;19;129075;-59
2022/12/25 00:23:29;;;;;;;5.43;1.50;;;;;;;19.60;42.12;101334.72;16119316;19;129893;-59
2022/12/25 00:28:52;;;;;;;3.60;1.40;;;;;;;19.57;42.04;101329.66;16128726;19;129968;-59
2022/12/25 00:34:14;;;;;;;2.53;1.00;;;;;;;19.54;41.82;101330.16;16130608;19;129256;-59
2022/12/25 00:39:36;;;;;;;2.92;1.25;;;;;;;19.52;41.91;101326.78;16135292;19;129542;-59
2022/12/25 00:45:00;;;;;;;2.05;1.10;;;;;;;19.51;41.98;101319.53;16135257;19;129643;-59
2022/12/25 00:50:22;;;;;;;3.22;0.95;;;;;;;19.48;41.54;101320.00;16132799;19;129328;-59
2022/12/25 00:55:48;;;;;;;4.75;1.20;;;;;;;19.47;41.63;101318.31;16131989;19;130153;-59
2022/12/25 01:01:10;;;;;;;3.28;1.33;;;;;;;19.45;41.62;101321.34;16133741;19;129547;-58
2022/12/25 01:06:32;;;;;;;3.63;1.17;;;;;;;19.43;41.72;101297.72;16132933;19;129530;-59
2022/12/25 01:11:54;;;;;;;2.38;1.00;;;;;;;19.43;41.74;101306.03;16133572;19;129960;-59
2022/12/25 01:17:16;;;;;;;4.95;1.08;;;;;;;19.40;41.79;101307.34;16132030;19;129333;-59
2022/12/25 01:22:37;;;;;;;1.42;0.73;;;;;;;19.38;41.62;101310.38;16132152;19;129376;-59
2022/12/25 01:27:59;;;;;;;4.13;1.08;;;;;;;19.36;41.78;101318.09;16133769;19;130448;-59
2022/12/25 01:33:21;;;;;;;4.43;0.80;;;;;;;19.34;41.90;101320.25;16129551;19;129704;-59
2022/12/25 01:38:44;;;;;;;2.33;0.85;;;;;;;19.36;41.87;101333.91;16129131;19;129192;-59
2022/12/25 01:44:14;;;;;;;2.72;1.00;;;;;;;19.33;41.92;101324.13;16131789;19;129410;-59
2022/12/25 01:49:39;;;;;;;1.80;0.88;;;;;;;19.31;41.33;101342.94;16133769;19;129852;-59
2022/12/25 01:55:02;;;;;;;1.80;0.90;;;;;;;19.30;41.87;101345.94;16131137;19;131010;-59
2022/12/25 02:00:24;;;;;;;3.08;0.88;;;;;;;19.28;41.47;101351.75;16131274;19;129419;-59
2022/12/25 02:05:46;;;;;;;3.55;0.90;;;;;;;19.24;41.74;101353.31;16132459;19;129627;-59
2022/12/25 02:11:55;;;;;;;1.38;0.60;;;;;;;19.25;41.86;101365.25;16129882;19;130543;-59
2022/12/25 02:17:05;;;;;;;1.35;0.60;;;;;;;19.23;41.68;101362.72;16127759;19;130025;-59
2022/12/25 02:22:52;;;;;;;1.58;0.82;;;;;;;19.22;41.50;101370.19;16127154;19;129970;-59
2022/12/25 02:28:20;;;;;;;2.17;1.00;;;;;;;19.18;41.53;101363.41;16125219;19;130227;-59
2022/12/25 02:34:03;;;;;;;3.58;0.80;;;;;;;19.19;41.58;101361.50;16127230;19;129004;-59
2022/12/25 02:39:58;;;;;;;1.67;0.73;;;;;;;19.17;41.48;101358.94;16125420;19;129368;-59
2022/12/25 03:08:29;;;;;;;1.48;0.50;;;;;;;19.10;41.60;101318.53;16121061;19;130494;-59
2022/12/25 03:16:49;;;;;;;1.27;0.73;;;;;;;19.07;41.42;101292.13;16123046;19;129314;-59
2022/12/25 03:31:15;;;;;;;1.00;0.52;;;;;;;19.05;41.41;101267.44;16123330;19;130752;-59
2022/12/25 04:39:33;;;;;;;1.67;0.52;;;;;;;18.86;41.30;101244.50;16138259;19;130852;-59
2022/12/25 04:44:55;;;;;;;1.20;0.60;;;;;;;18.86;41.56;101247.28;16135372;19;129265;-60
2022/12/25 04:50:16;;;;;;;1.75;0.60;;;;;;;18.86;41.61;101251.97;16136190;19;129648;-59
2022/12/25 04:55:38;;;;;;;1.23;0.55;;;;;;;18.85;41.61;101248.38;16136041;19;130134;-59
2022/12/25 05:01:02;;;;;;;1.55;0.60;;;;;;;18.84;41.33;101241.13;16135399;19;136095;-59
2022/12/25 05:06:24;;;;;;;0.93;0.43;;;;;;;18.83;41.53;101233.91;16133636;19;130650;-59
2022/12/25 05:11:45;;;;;;;0.80;0.40;;;;;;;18.81;41.24;101215.81;16134388;19;129244;-59
2022/12/25 05:17:07;;;;;;;1.25;0.60;;;;;;;18.81;41.64;101216.66;16131712;19;129819;-59
2022/12/25 05:22:29;;;;;;;1.00;0.52;;;;;;;18.80;41.60;101219.69;16131289;19;130755;-59
2022/12/25 05:27:50;;;;;;;0.45;0.30;;;;;;;18.79;41.41;101206.91;16129775;19;129055;-59
2022/12/25 05:33:14;;;;;;;1.05;0.52;;;;;;;18.77;41.18;101205.22;16130692;19;129350;-59
2022/12/25 05:38:36;;;;;;;0.98;0.45;;;;;;;18.77;41.52;101199.66;16134365;19;128970;-59
2022/12/25 05:43:58;;;;;;;0.70;0.40;;;;;;;18.75;41.37;101190.75;16132994;19;129712;-59
2022/12/25 05:49:20;;;;;;;0.52;0.30;;;;;;;18.74;41.54;101177.97;16130812;19;133630;-59
2022/12/25 05:54:42;;;;;;;2.85;0.50;;;;;;;18.73;41.53;101175.44;16129684;19;130085;-60
2022/12/25 06:00:05;;;;;;;0.85;0.30;;;;;;;18.73;41.49;101165.19;16131036;19;129482;-59
2022/12/25 06:05:26;;;;;;;0.73;0.40;;;;;;;18.72;41.07;101162.69;16127889;19;129433;-59
2022/12/25 06:10:48;;;;;;;0.85;0.45;;;;;;;18.70;41.09;101154.63;16131496;19;129284;-59
2022/12/25 06:16:11;;;;;;;1.35;0.45;;;;;;;18.70;41.23;101129.69;16130038;19;131366;-59
2022/12/25 06:21:33;;;;;;;0.60;0.40;;;;;;;18.68;41.31;101117.97;16129975;19;129495;-59
2022/12/25 06:26:55;;;;;;;0.90;0.40;;;;;;;18.67;41.34;101091.34;16128821;19;133020;-59
2022/12/25 06:32:16;;;;;;;1.27;0.50;;;;;;;18.66;41.12;101075.81;16129224;19;129540;-59
2022/12/25 06:37:38;;;;;;;0.55;0.22;;;;;;;18.65;40.98;101074.13;16130615;19;129670;-59
2022/12/25 06:43:00;;;;;;;1.00;0.50;;;;;;;18.68;40.91;101057.00;16129537;19;134958;-60
2022/12/25 06:48:22;;;;;;;2.28;0.30;;;;;;;18.76;41.08;101059.41;16127557;19;129052;-59
2022/12/25 06:53:44;;;;;;;0.93;0.30;;;;;;;19.13;40.99;101071.25;16129790;19;129363;-59
2022/12/25 06:59:08;;;;;;;0.93;0.40;;;;;;;19.60;40.04;101067.47;16127399;19;129548;-60
2022/12/25 07:04:41;;;;;;;1.23;0.30;;;;;;;20.06;39.41;101081.34;16127583;19;129488;-59
2022/12/25 07:10:03;;;;;;;0.40;0.40;;;;;;;20.33;38.91;101069.50;16126225;19;129886;-60
2022/12/25 07:15:25;;;;;;;0.50;0.30;;;;;;;20.46;38.68;101077.50;16122391;19;129508;-59
2022/12/25 07:20:47;;;;;;;1.23;0.40;;;;;;;20.49;39.03;101065.88;16123751;19;128893;-60
2022/12/25 07:26:10;;;;;;;1.83;0.38;;;;;;;20.47;38.54;101065.28;16122649;19;129152;-59
2022/12/25 07:31:32;;;;;;;0.82;0.30;;;;;;;20.38;39.00;101067.66;16125014;19;129414;-60
2022/12/25 07:36:53;;;;;;;0.50;0.30;;;;;;;20.28;38.63;101093.38;16128107;19;129645;-60
2022/12/25 07:42:15;;;;;;;0.95;0.40;;;;;;;20.19;39.10;101113.47;16137968;19;130820;-59
2022/12/25 07:47:45;;;;;;;2.38;0.40;;;;;;;20.08;39.23;101140.22;16138531;19;131061;-60
2022/12/25 07:53:06;;;;;;;1.00;0.50;;;;;;;19.99;39.34;101143.41;16137419;19;129330;-59
2022/12/25 07:58:29;;;;;;;0.43;0.30;;;;;;;19.88;39.44;101152.63;16135972;19;129771;-59
2022/12/25 08:03:53;;;;;;;1.65;0.35;;;;;;;19.80;39.65;101144.72;16135632;19;129858;-59
2022/12/25 08:09:15;;;;;;;0.45;0.30;;;;;;;19.69;39.97;101144.50;16135047;19;131202;-59
2022/12/25 08:14:37;;;;;;;0.75;0.35;;;;;;;19.61;39.88;101144.91;16136768;19;129451;-59
2022/12/25 08:19:59;;;;;;;2.00;0.40;;;;;;;19.53;39.83;101170.28;16137626;19;130196;-59
2022/12/25 08:25:20;;;;;;;1.35;0.20;;;;;;;19.50;40.53;101192.97;16134125;19;130103;-60
2022/12/25 08:30:42;;;;;;;4.05;0.73;;;;;;;19.46;40.27;101177.88;16135667;19;129656;-60
2022/12/25 08:36:08;;;;;;;4.07;0.40;;;;;;;19.44;39.74;101169.00;16132486;19;129245;-61
2022/12/25 08:41:30;;;;;;;4.78;0.45;;;;;;;19.44;39.21;101158.72;16137325;19;129926;-61
2022/12/25 08:46:52;;;;;;;1.77;0.70;;;;;;;19.54;38.98;101141.44;16133997;19;129687;-61
2022/12/25 08:52:15;;;;;;;3.05;0.40;;;;;;;19.82;38.84;101142.50;16133520;19;134111;-60
2022/12/25 08:57:37;;;;;;;1.48;0.40;;;;;;;20.11;38.47;101112.81;16135342;19;130472;-61
2022/12/25 09:02:58;;;;;;;0.75;0.38;;;;;;;20.38;38.21;101127.94;16135248;19;129461;-61
2022/12/25 09:08:21;;;;;;;1.08;0.40;;;;;;;20.60;37.65;101139.16;16132374;19;129496;-61
2022/12/25 09:13:42;;;;;;;5.80;0.73;;;;;;;20.78;37.68;101124.16;16132953;19;129535;-61
2022/12/25 09:19:04;;;;;;;6.80;0.60;;;;;;;20.88;37.46;101129.84;16135282;19;130173;-61
2022/12/25 09:24:26;;;;;;;2.05;0.70;;;;;;;20.89;36.99;101120.41;16129711;19;129801;-62
2022/12/25 09:29:48;;;;;;;4.15;1.08;;;;;;;20.90;37.23;101119.31;16129919;19;129613;-62
2022/12/25 09:35:10;;;;;;;8.25;2.35;;;;;;;20.95;37.18;101120.47;16128082;19;131076;-62
2022/12/25 09:40:32;;;;;;;15.63;5.53;;;;;;;21.00;37.56;101095.50;16129205;19;129680;-63
2022/12/25 09:45:55;;;;;;;20.95;5.97;;;;;;;21.09;37.49;101082.00;16130528;19;129477;-62
2022/12/25 09:51:17;;;;;;;23.10;5.90;;;;;;;21.15;37.45;101067.88;16127981;19;129254;-62
2022/12/25 09:56:39;;;;;;;21.75;7.25;;;;;;;21.25;37.84;101064.34;16130273;19;129796;-62
2022/12/25 10:02:19;;;;;;;30.70;7.75;;;;;;;21.31;37.82;101062.47;16124796;19;129810;-62
2022/12/25 10:07:42;;;;;;;26.63;6.60;;;;;;;21.36;37.79;101076.47;16127643;19;130275;-62
2022/12/25 10:13:06;;;;;;;54.50;8.48;;;;;;;21.32;38.16;101076.16;16127512;19;129734;-62
2022/12/25 10:18:37;;;;;;;49.28;8.80;;;;;;;21.22;38.36;101054.59;16126877;19;129808;-62
2022/12/25 10:24:32;;;;;;;40.30;9.68;;;;;;;21.07;38.41;101051.63;16201328;19;131414;-51
2022/12/25 10:29:53;;;;;;;51.40;8.85;;;;;;;20.86;38.94;101048.63;16199130;19;131544;-49
2022/12/25 10:35:18;;;;;;;37.33;7.28;;;;;;;20.72;39.25;101034.25;16193576;19;130557;-46
2022/12/25 10:40:58;;;;;;;25.90;6.85;;;;;;;20.59;39.47;101024.31;16196172;19;129644;-52
2022/12/25 10:46:23;;;;;;;25.42;6.00;;;;;;;20.45;39.72;101011.91;16192606;19;129268;-49
2022/12/25 10:51:44;;;;;;;27.00;5.43;;;;;;;20.34;39.46;101026.75;16196012;19;132314;-48
2022/12/25 10:57:09;;;;;;;31.13;6.20;;;;;;;20.22;40.14;101030.47;16192481;19;130256;-47
2022/12/25 11:02:39;;;;;;;28.67;5.47;;;;;;;20.13;40.09;101005.06;16191781;19;129511;-45
2022/12/25 11:08:02;;;;;;;18.70;4.25;;;;;;;20.04;40.51;101000.22;16195683;19;131265;-47
2022/12/25 11:13:26;;;;;;;20.73;5.28;;;;;;;19.96;40.57;100977.28;16193596;19;129786;-45
2022/12/25 11:18:51;;;;;;;16.08;4.40;;;;;;;19.90;40.55;100967.19;16194101;19;129599;-49
2022/12/25 11:24:21;;;;;;;21.15;4.25;;;;;;;19.84;40.60;100963.50;16190197;19;129578;-48
2022/12/25 11:29:48;;;;;;;15.98;3.80;;;;;;;19.79;40.92;100945.94;16182678;19;130031;-47
2022/12/25 11:35:12;;;;;;;17.23;4.35;;;;;;;19.74;40.74;100954.16;16111682;19;130568;-49
2022/12/25 11:40:39;;;;;;;29.87;4.47;;;;;;;19.64;40.99;100958.47;16121328;19;130928;-49
2022/12/25 11:46:17;;;;;;;27.73;4.78;;;;;;;19.56;41.26;100945.03;16128644;19;130208;-47
2022/12/25 11:51:42;;;;;;;22.05;4.22;;;;;;;19.53;41.37;100945.53;16127647;19;130384;-46
2022/12/25 11:57:05;;;;;;;20.00;3.78;;;;;;;19.60;41.16;100946.19;16126748;19;129441;-46
2022/12/25 12:02:38;;;;;;;18.27;3.63;;;;;;;19.68;41.32;100931.03;16126672;19;129701;-50
2022/12/25 12:08:05;;;;;;;22.30;3.67;;;;;;;19.77;41.16;100935.06;16127499;19;129910;-48
2022/12/25 12:13:30;;;;;;;16.02;3.03;;;;;;;19.80;40.90;100939.28;16125419;19;130072;-47
2022/12/25 12:18:52;;;;;;;22.83;4.03;;;;;;;19.80;41.06;100919.84;16125752;19;129552;-47
2022/12/25 12:24:21;;;;;;;28.33;4.07;;;;;;;19.84;40.94;100901.56;16123435;19;130935;-46
2022/12/25 12:29:44;;;;;;;13.13;3.00;;;;;;;19.85;41.15;100903.25;16127652;19;131181;-46
2022/12/25 12:35:17;;;;;;;17.00;2.83;;;;;;;19.88;40.63;100911.09;16125308;19;130399;-46
2022/12/25 12:40:49;;;;;;;16.52;2.85;;;;;;;19.87;40.89;100906.63;16123823;19;129707;-50
2022/12/25 12:46:29;;;;;;;13.75;2.80;;;;;;;19.83;40.47;100888.78;16119450;19;130015;-47
2022/12/25 12:52:03;;;;;;;10.13;2.28;;;;;;;19.77;40.81;100884.28;16124713;19;129281;-47
2022/12/25 12:57:31;;;;;;;9.27;2.63;;;;;;;19.67;40.57;100860.81;16124325;19;132676;-49
2022/12/25 13:03:12;;;;;;;14.90;2.67;;;;;;;19.62;40.78;100852.41;16124121;19;129934;-47
2022/12/25 13:09:05;;;;;;;18.33;2.58;;;;;;;19.56;41.04;100856.22;16124199;19;130697;-46
2022/12/25 13:14:27;;;;;;;15.32;2.78;;;;;;;19.49;41.46;100841.66;16117348;19;129591;-45
2022/12/25 13:19:59;;;;;;;16.48;2.42;;;;;;;19.46;41.79;100836.63;16120238;19;131003;-46
2022/12/25 13:25:22;;;;;;;10.52;2.20;;;;;;;19.40;41.84;100830.16;16118729;19;129049;-48
2022/12/25 13:30:45;;;;;;;12.30;2.55;;;;;;;19.34;41.94;100818.16;16119498;19;129829;-47
2022/12/25 13:36:13;;;;;;;11.82;1.83;;;;;;;19.33;41.70;100823.97;16116666;19;130021;-45
2022/12/25 13:42:04;;;;;;;11.90;2.42;;;;;;;19.35;42.03;100808.72;16120068;19;128950;-46
2022/12/25 13:47:30;;;;;;;11.80;2.35;;;;;;;19.38;41.72;100799.91;16120023;19;130638;-49
2022/12/25 13:52:53;;;;;;;11.55;1.92;;;;;;;19.42;41.69;100789.13;16118558;19;131655;-46
2022/12/25 13:58:28;;;;;;;12.57;1.85;;;;;;;19.49;41.87;100798.13;16115557;19;130766;-45
2022/12/25 14:03:51;;;;;;;8.77;1.42;;;;;;;19.52;41.75;100791.22;16116706;19;129521;-49
2022/12/25 14:09:14;;;;;;;10.55;1.95;;;;;;;19.56;41.78;100800.72;16113968;19;129556;-48
2022/12/25 14:14:36;;;;;;;11.52;2.13;;;;;;;19.61;41.74;100788.84;16118453;19;133446;-47
2022/12/25 14:19:59;;;;;;;8.43;1.70;;;;;;;19.64;42.09;100797.50;16115511;19;130759;-45
2022/12/25 14:25:42;;;;;;;7.70;1.40;;;;;;;19.65;42.16;100782.53;16113938;19;129808;-46
2022/12/25 14:31:04;;;;;;;6.22;1.52;;;;;;;19.63;42.10;100784.72;16115760;19;129063;-47
2022/12/25 14:36:26;;;;;;;4.78;1.42;;;;;;;19.63;42.13;100795.00;16110548;19;130494;-47
2022/12/25 14:41:52;;;;;;;5.60;1.25;;;;;;;19.60;41.67;100790.78;16111212;19;130591;-50
2022/12/25 14:47:17;;;;;;;4.57;1.30;;;;;;;19.51;41.94;100772.91;16115826;19;129978;-49
2022/12/25 14:52:43;;;;;;;9.40;1.70;;;;;;;19.46;41.74;100781.13;16114469;19;131167;-45
2022/12/25 14:58:06;;;;;;;9.02;1.38;;;;;;;19.40;42.26;100790.50;16114849;19;129382;-49
2022/12/25 15:03:31;;;;;;;7.28;1.40;;;;;;;19.36;41.95;100785.44;16112552;19;130827;-45
2022/12/25 15:08:59;;;;;;;12.83;1.40;;;;;;;19.32;42.49;100798.13;16121170;19;130320;-44
2022/12/25 15:14:22;;;;;;;10.40;1.30;;;;;;;19.28;42.69;100788.66;16125788;19;129713;-48
2022/12/25 15:19:44;;;;;;;11.82;1.20;;;;;;;19.24;42.38;100776.38;16125371;19;130061;-48
2022/12/25 15:25:11;;;;;;;9.27;1.38;;;;;;;19.31;42.86;100790.94;16120568;19;132644;-46
2022/12/25 15:30:38;;;;;;;3.20;0.80;;;;;;;19.46;42.54;100789.47;16122590;19;131216;-45
2022/12/25 15:35:59;;;;;;;11.95;1.40;;;;;;;19.63;42.44;100793.03;16123118;19;130084;-47
2022/12/25 15:47:11;;;;;;;12.35;1.38;;;;;;;20.01;42.14;100778.56;16121256;19;130363;-46
2022/12/25 15:52:32;;;;;;;13.93;1.27;;;;;;;20.13;42.14;100770.94;16115557;19;129910;-45
2022/12/25 15:57:54;;;;;;;12.10;1.45;;;;;;;20.27;41.88;100771.34;16124179;19;130104;-47
2022/12/25 16:03:16;;;;;;;17.30;1.63;;;;;;;20.47;41.55;100772.69;16123054;19;129404;-45
2022/12/25 16:08:38;;;;;;;13.57;1.77;;;;;;;20.69;41.61;100779.00;16122377;19;129379;-45
2022/12/25 16:14:00;;;;;;;21.08;1.75;;;;;;;20.83;41.08;100773.03;16121784;19;130949;-45
2022/12/25 16:19:22;;;;;;;16.52;2.10;;;;;;;20.92;40.66;100781.72;16119026;19;129303;-51
2022/12/25 16:24:44;;;;;;;14.57;1.55;;;;;;;20.86;40.41;100787.25;16119192;19;130097;-49
2022/12/25 16:30:06;;;;;;;12.88;1.52;;;;;;;20.82;40.48;100802.75;16114386;19;129860;-52
2022/12/25 16:35:28;;;;;;;9.50;1.60;;;;;;;20.85;40.96;100788.34;16101000;19;130418;-48
2022/12/25 16:40:55;;;;;;;11.77;1.30;;;;;;;20.86;40.53;100789.19;16097791;19;131508;-47
2022/12/25 16:46:20;;;;;;;12.90;1.50;;;;;;;20.81;40.59;100791.91;16101994;19;129664;-46
2022/12/25 16:51:42;;;;;;;16.13;1.60;;;;;;;20.73;40.67;100802.41;16119253;19;130372;-50
2022/12/25 16:57:04;;;;;;;9.95;1.63;;;;;;;20.67;41.13;100802.59;16119941;19;129773;-49
2022/12/25 17:02:26;;;;;;;8.98;1.00;;;;;;;20.59;40.98;100801.16;16120003;19;130561;-51
2022/12/25 17:07:48;;;;;;;6.72;1.40;;;;;;;20.50;41.09;100794.34;16120611;19;129325;-49
2022/12/25 17:13:10;;;;;;;7.75;2.83;;;;;;;20.43;41.18;100791.81;16119089;19;132189;-49
2022/12/25 17:18:32;;;;;;;11.82;3.60;;;;;;;20.38;40.99;100791.75;16119996;19;129969;-47
2022/12/25 17:23:54;;;;;;;5.90;2.53;;;;;;;20.34;41.38;100793.38;16121188;19;129933;-51
2022/12/25 17:29:23;;;;;;;6.43;2.88;;;;;;;20.29;40.86;100799.72;16117671;19;129471;-46
2022/12/25 17:34:45;;;;;;;8.85;2.60;;;;;;;20.23;40.98;100796.03;16119497;19;130523;-48
2022/12/25 17:40:08;;;;;;;7.15;2.33;;;;;;;20.20;41.37;100784.63;16121620;19;129943;-48
2022/12/25 17:45:30;;;;;;;4.22;2.22;;;;;;;20.17;40.93;100772.09;16120672;19;131246;-50
2022/12/25 17:50:51;;;;;;;4.75;2.08;;;;;;;20.16;40.94;100766.78;16120399;19;130311;-49
2022/12/25 17:56:15;;;;;;;3.00;1.70;;;;;;;20.13;40.90;100777.31;16115327;19;129369;-50
2022/12/25 18:01:38;;;;;;;5.90;2.25;;;;;;;20.11;41.30;100784.22;16118413;19;130418;-52
2022/12/25 18:07:02;;;;;;;4.30;2.28;;;;;;;20.09;41.18;100794.75;16115798;19;130635;-50
2022/12/25 18:12:23;;;;;;;2.85;1.75;;;;;;;20.08;41.16;100801.41;16117372;19;129906;-48
2022/12/25 18:17:45;;;;;;;7.90;2.13;;;;;;;20.05;40.79;100802.78;16117349;19;129823;-50
2022/12/25 18:23:08;;;;;;;4.10;1.65;;;;;;;20.05;40.72;100807.50;16113872;19;129047;-45
2022/12/25 18:28:30;;;;;;;3.67;1.92;;;;;;;20.02;41.02;100814.38;16115007;19;129427;-49
2022/12/25 18:33:52;;;;;;;3.42;2.05;;;;;;;20.01;40.67;100822.97;16115856;19;129009;-47
2022/12/25 18:39:14;;;;;;;3.53;1.90;;;;;;;19.96;40.95;100810.69;16112092;19;128966;-48
2022/12/25 18:44:36;;;;;;;7.35;4.47;;;;;;;19.97;40.83;100806.81;16127492;19;130246;-48
2022/12/25 18:49:58;;;;;;;21.23;5.20;;;;;;;19.99;40.87;100809.34;16128688;19;131426;-50
2022/12/25 18:55:20;;;;;;;12.90;5.45;;;;;;;19.99;41.03;100809.34;16127930;19;130148;-44
2022/12/25 19:00:41;;;;;;;10.60;5.15;;;;;;;20.01;41.46;100798.00;16129831;19;130123;-47
2022/12/25 19:06:03;;;;;;;11.90;5.90;;;;;;;20.01;41.30;100792.44;16132007;19;129930;-46
2022/12/25 19:11:25;;;;;;;11.20;6.60;;;;;;;20.03;41.56;100815.25;16130389;19;129442;-46
2022/12/25 19:16:47;;;;;;;9.55;6.70;;;;;;;20.02;41.62;100808.84;16129825;19;130968;-52
2022/12/25 19:22:09;;;;;;;10.63;6.90;;;;;;;20.03;41.43;100823.56;16128613;19;130144;-46
2022/12/25 19:27:31;;;;;;;18.33;8.25;;;;;;;20.03;41.59;100812.47;16131030;19;130681;-47
2022/12/25 19:32:53;;;;;;;13.90;8.13;;;;;;;20.04;41.57;100805.81;16130034;19;130391;-48
2022/12/25 19:38:15;;;;;;;12.07;8.20;;;;;;;20.04;41.76;100822.47;16128719;19;129946;-47
2022/12/25 19:43:38;;;;;;;10.95;7.60;;;;;;;20.05;41.55;100813.06;16131253;19;129536;-53
2022/12/25 19:49:03;;;;;;;16.52;8.05;;;;;;;20.01;41.63;100798.81;16124713;19;132054;-49
2022/12/25 19:54:25;;;;;;;22.20;9.13;;;;;;;19.97;41.68;100819.88;16121030;19;129947;-49
2022/12/25 19:59:48;;;;;;;19.98;9.85;;;;;;;19.97;41.88;100829.00;16127262;19;130201;-52
2022/12/25 20:05:10;;;;;;;21.83;8.75;;;;;;;19.98;42.11;100839.03;16125746;19;130130;-51
2022/12/25 20:10:32;;;;;;;15.02;8.55;;;;;;;19.99;42.10;100843.53;16129017;19;129031;-49
2022/12/25 20:15:59;;;;;;;16.20;8.32;;;;;;;20.02;42.04;100841.31;16126267;19;129401;-45
2022/12/25 20:21:22;;;;;;;14.77;7.88;;;;;;;20.01;42.09;100834.09;16118999;19;132155;-50
2022/12/25 20:26:44;;;;;;;22.00;8.43;;;;;;;20.03;42.29;100826.34;16124225;19;130007;-48
2022/12/25 20:32:09;;;;;;;16.55;7.47;;;;;;;20.08;42.75;100824.47;16124694;19;130983;-49
2022/12/25 20:37:31;;;;;;;12.40;7.70;;;;;;;20.14;42.91;100831.75;16122522;19;129977;-47
2022/12/25 20:42:52;;;;;;;15.98;7.35;;;;;;;20.20;42.83;100823.50;16121919;19;129584;-49
2022/12/25 20:48:14;;;;;;;15.95;7.35;;;;;;;20.24;42.82;100841.34;16120117;19;130416;-48
2022/12/25 20:53:36;;;;;;;15.93;6.50;;;;;;;20.28;43.14;100828.59;16123912;19;129846;-50
2022/12/25 20:58:59;;;;;;;15.45;6.78;;;;;;;20.32;43.17;100840.88;16125355;19;129922;-52
2022/12/25 21:04:21;;;;;;;18.50;6.22;;;;;;;20.34;43.04;100854.47;16117596;19;129971;-46
2022/12/25 21:09:43;;;;;;;13.50;6.22;;;;;;;20.37;43.24;100877.03;16121383;19;129085;-53
2022/12/25 21:15:05;;;;;;;10.50;6.05;;;;;;;20.37;43.29;100877.03;16121617;19;129867;-51
2022/12/25 21:20:35;;;;;;;12.73;6.05;;;;;;;20.38;43.38;100875.09;16119503;19;129859;-48
2022/12/25 21:25:57;;;;;;;16.35;6.68;;;;;;;20.34;43.39;100893.38;16120879;19;129515;-51
2022/12/25 21:31:19;;;;;;;19.38;6.20;;;;;;;20.32;43.81;100893.66;16118204;19;129461;-48
2022/12/25 21:36:41;;;;;;;15.23;5.60;;;;;;;20.30;43.45;100893.06;16119467;19;129798;-48
2022/12/25 21:42:04;;;;;;;11.52;5.47;;;;;;;20.28;43.55;100895.25;16116683;19;129928;-46
2022/12/25 21:47:25;;;;;;;9.55;5.15;;;;;;;20.26;43.98;100908.56;16120194;19;131642;-49
2022/12/25 21:53:08;;;;;;;12.20;5.05;;;;;;;20.24;44.07;100914.38;16119421;19;130951;-53
2022/12/25 21:58:29;;;;;;;9.65;5.05;;;;;;;20.22;43.94;100907.41;16118459;19;129045;-49
2022/12/25 22:03:51;;;;;;;10.95;4.57;;;;;;;20.21;44.09;100898.22;16119380;19;130404;-49
2022/12/25 22:09:13;;;;;;;8.65;4.68;;;;;;;20.19;44.23;100892.09;16118090;19;130104;-46
2022/12/25 22:14:50;;;;;;;18.13;4.18;;;;;;;20.19;44.37;100897.63;16120701;19;129688;-48
2022/12/25 22:20:22;;;;;;;17.85;4.95;;;;;;;20.18;43.79;100907.09;16112141;19;129814;-50
2022/12/25 22:25:44;;;;;;;7.78;4.82;;;;;;;20.13;43.79;100904.25;16119193;19;130048;-52
2022/12/25 22:31:06;;;;;;;7.45;4.40;;;;;;;20.09;43.87;100914.16;16115915;19;129290;-49
2022/12/25 22:36:28;;;;;;;11.45;3.97;;;;;;;20.05;44.00;100915.81;16119029;19;131035;-49
2022/12/25 22:41:50;;;;;;;6.72;4.07;;;;;;;20.00;43.70;100927.66;16114782;19;131241;-46
2022/12/25 22:47:11;;;;;;;8.15;3.83;;;;;;;19.97;44.20;100928.16;16115817;19;130031;-46
2022/12/25 22:52:33;;;;;;;6.15;3.10;;;;;;;19.94;43.98;100948.91;16114684;19;129610;-49
2022/12/25 22:57:55;;;;;;;8.23;3.20;;;;;;;19.90;44.08;100933.88;16115491;19;130026;-51
2022/12/25 23:03:17;;;;;;;7.40;3.45;;;;;;;19.88;44.23;100935.25;16113002;19;130142;-49
2022/12/25 23:08:39;;;;;;;9.70;2.88;;;;;;;19.83;44.00;100939.63;16116807;19;130229;-48
2022/12/25 23:31:02;;;;;;;7.30;3.42;;;;;;;19.61;43.83;100942.31;16126713;19;129952;-48
2022/12/25 23:36:24;;;;;;;5.55;3.58;;;;;;;19.58;43.40;100928.09;16124212;19;129948;-48
2022/12/25 23:41:46;;;;;;;4.55;3.47;;;;;;;19.55;43.77;100948.88;16129961;19;130794;-47
2022/12/25 23:47:08;;;;;;;5.32;3.20;;;;;;;19.53;43.56;100945.53;16125415;19;130859;-49
2022/12/25 23:52:30;;;;;;;3.53;2.60;;;;;;;19.51;43.74;100956.03;16121063;19;130471;-48
2022/12/25 23:57:52;;;;;;;4.32;2.47;;;;;;;19.48;43.53;100962.94;16126753;19;130038;-50
